sensor_id;sensor_type;location;lat;lon;timestamp;P1;durP1;ratioP1;P2;durP2;ratioP2
13609;SDS011;6876;50.788;4.940;2023-05-23T00:01:55;54.27;;;38.93;;
13609;SDS011;6876;50.788;4.940;2023-05-23T00:04:43;54.07;;;40.00;;
13609;SDS011;6876;50.788;4.940;2023-05-23T00:07:30;56.70;;;39.40;;
13609;SDS011;6876;50.788;4.940;2023-05-23T00:10:17;59.17;;;39.97;;
13609;SDS011;6876;50.788;4.940;2023-05-23T00:13:05;55.77;;;40.80;;
13609;SDS011;6876;50.788;4.940;2023-05-23T00:15:55;53.70;;;36.17;;
13609;SDS011;6876;50.788;4.940;2023-05-23T00:18:42;58.03;;;39.23;;
13609;SDS011;6876;50.788;4.940;2023-05-23T00:21:30;51.53;;;38.00;;
13609;SDS011;6876;50.788;4.940;2023-05-23T00:24:17;55.27;;;40.00;;
13609;SDS011;6876;50.788;4.940;2023-05-23T00:27:05;53.27;;;37.43;;
13609;SDS011;6876;50.788;4.940;2023-05-23T00:29:52;54.53;;;41.67;;
13609;SDS011;6876;50.788;4.940;2023-05-23T00:32:41;59.90;;;42.60;;
13609;SDS011;6876;50.788;4.940;2023-05-23T00:35:28;63.37;;;42.40;;
13609;SDS011;6876;50.788;4.940;2023-05-23T00:38:15;66.10;;;42.10;;
13609;SDS011;6876;50.788;4.940;2023-05-23T00:41:03;54.60;;;37.50;;
13609;SDS011;6876;50.788;4.940;2023-05-23T00:43:51;54.53;;;40.70;;
13609;SDS011;6876;50.788;4.940;2023-05-23T00:46:38;58.10;;;39.80;;
13609;SDS011;6876;50.788;4.940;2023-05-23T00:49:27;57.00;;;38.80;;
13609;SDS011;6876;50.788;4.940;2023-05-23T00:52:15;56.67;;;40.73;;
13609;SDS011;6876;50.788;4.940;2023-05-23T00:55:03;51.53;;;38.93;;
13609;SDS011;6876;50.788;4.940;2023-05-23T00:57:53;50.03;;;37.47;;
13609;SDS011;6876;50.788;4.940;2023-05-23T01:00:41;51.33;;;37.73;;
13609;SDS011;6876;50.788;4.940;2023-05-23T01:03:30;56.80;;;38.20;;
13609;SDS011;6876;50.788;4.940;2023-05-23T01:06:19;55.23;;;37.47;;
13609;SDS011;6876;50.788;4.940;2023-05-23T01:09:07;49.67;;;36.10;;
13609;SDS011;6876;50.788;4.940;2023-05-23T01:11:57;53.63;;;37.70;;
13609;SDS011;6876;50.788;4.940;2023-05-23T01:14:58;52.87;;;36.87;;
13609;SDS011;6876;50.788;4.940;2023-05-23T01:17:53;52.67;;;36.47;;
13609;SDS011;6876;50.788;4.940;2023-05-23T01:20:49;56.07;;;36.47;;
13609;SDS011;6876;50.788;4.940;2023-05-23T01:23:54;55.47;;;35.63;;
13609;SDS011;6876;50.788;4.940;2023-05-23T01:27:07;45.30;;;33.67;;
13609;SDS011;6876;50.788;4.940;2023-05-23T01:30:08;45.47;;;33.63;;
13609;SDS011;6876;50.788;4.940;2023-05-23T01:32:57;49.27;;;32.27;;
13609;SDS011;6876;50.788;4.940;2023-05-23T01:35:45;44.40;;;29.53;;
13609;SDS011;6876;50.788;4.940;2023-05-23T01:38:33;40.73;;;29.47;;
13609;SDS011;6876;50.788;4.940;2023-05-23T01:41:21;41.63;;;28.83;;
13609;SDS011;6876;50.788;4.940;2023-05-23T01:44:08;37.77;;;26.50;;
13609;SDS011;6876;50.788;4.940;2023-05-23T01:46:57;38.27;;;28.00;;
13609;SDS011;6876;50.788;4.940;2023-05-23T01:49:44;41.87;;;29.23;;
13609;SDS011;6876;50.788;4.940;2023-05-23T01:52:33;34.63;;;27.43;;
13609;SDS011;6876;50.788;4.940;2023-05-23T01:55:21;39.33;;;29.93;;
13609;SDS011;6876;50.788;4.940;2023-05-23T01:58:09;44.10;;;29.87;;
13609;SDS011;6876;50.788;4.940;2023-05-23T02:00:56;40.53;;;28.90;;
13609;SDS011;6876;50.788;4.940;2023-05-23T02:03:45;44.30;;;30.70;;
13609;SDS011;6876;50.788;4.940;2023-05-23T02:06:32;37.17;;;28.53;;
13609;SDS011;6876;50.788;4.940;2023-05-23T02:09:20;41.47;;;28.47;;
13609;SDS011;6876;50.788;4.940;2023-05-23T02:12:07;37.37;;;27.60;;
13609;SDS011;6876;50.788;4.940;2023-05-23T02:14:55;36.37;;;26.23;;
13609;SDS011;6876;50.788;4.940;2023-05-23T02:17:42;39.07;;;26.53;;
13609;SDS011;6876;50.788;4.940;2023-05-23T02:20:31;39.40;;;27.03;;
13609;SDS011;6876;50.788;4.940;2023-05-23T02:23:18;35.23;;;24.90;;
13609;SDS011;6876;50.788;4.940;2023-05-23T02:26:05;33.07;;;24.70;;
13609;SDS011;6876;50.788;4.940;2023-05-23T02:28:53;36.13;;;24.77;;
13609;SDS011;6876;50.788;4.940;2023-05-23T02:31:40;32.00;;;22.97;;
13609;SDS011;6876;50.788;4.940;2023-05-23T02:34:27;28.17;;;21.57;;
13609;SDS011;6876;50.788;4.940;2023-05-23T02:37:16;30.73;;;22.87;;
13609;SDS011;6876;50.788;4.940;2023-05-23T02:40:04;30.73;;;21.67;;
13609;SDS011;6876;50.788;4.940;2023-05-23T02:42:52;30.10;;;22.83;;
13609;SDS011;6876;50.788;4.940;2023-05-23T02:45:41;37.83;;;23.67;;
13609;SDS011;6876;50.788;4.940;2023-05-23T02:48:28;34.00;;;23.07;;
13609;SDS011;6876;50.788;4.940;2023-05-23T02:51:16;34.83;;;23.83;;
13609;SDS011;6876;50.788;4.940;2023-05-23T02:54:05;36.13;;;24.57;;
13609;SDS011;6876;50.788;4.940;2023-05-23T02:56:52;35.70;;;23.50;;
13609;SDS011;6876;50.788;4.940;2023-05-23T02:59:40;32.80;;;23.87;;
13609;SDS011;6876;50.788;4.940;2023-05-23T03:02:27;33.93;;;24.73;;
13609;SDS011;6876;50.788;4.940;2023-05-23T03:05:14;32.87;;;23.03;;
13609;SDS011;6876;50.788;4.940;2023-05-23T03:08:02;30.13;;;22.50;;
13609;SDS011;6876;50.788;4.940;2023-05-23T03:10:51;33.67;;;23.77;;
13609;SDS011;6876;50.788;4.940;2023-05-23T03:13:38;36.30;;;22.97;;
13609;SDS011;6876;50.788;4.940;2023-05-23T03:16:25;33.00;;;22.90;;
13609;SDS011;6876;50.788;4.940;2023-05-23T03:19:13;28.30;;;22.83;;
13609;SDS011;6876;50.788;4.940;2023-05-23T03:22:00;26.53;;;20.73;;
13609;SDS011;6876;50.788;4.940;2023-05-23T03:24:47;26.40;;;21.67;;
13609;SDS011;6876;50.788;4.940;2023-05-23T03:27:36;23.37;;;18.87;;
13609;SDS011;6876;50.788;4.940;2023-05-23T03:30:23;23.93;;;19.73;;
13609;SDS011;6876;50.788;4.940;2023-05-23T03:33:11;21.37;;;18.57;;
13609;SDS011;6876;50.788;4.940;2023-05-23T03:35:58;23.83;;;19.37;;
13609;SDS011;6876;50.788;4.940;2023-05-23T03:38:45;23.80;;;18.20;;
13609;SDS011;6876;50.788;4.940;2023-05-23T03:41:32;23.37;;;17.80;;
13609;SDS011;6876;50.788;4.940;2023-05-23T03:44:21;24.07;;;18.80;;
13609;SDS011;6876;50.788;4.940;2023-05-23T03:47:09;25.33;;;18.03;;
13609;SDS011;6876;50.788;4.940;2023-05-23T03:49:56;21.27;;;17.67;;
13609;SDS011;6876;50.788;4.940;2023-05-23T03:52:43;24.33;;;18.20;;
13609;SDS011;6876;50.788;4.940;2023-05-23T03:55:31;26.23;;;18.03;;
13609;SDS011;6876;50.788;4.940;2023-05-23T03:58:18;23.67;;;17.43;;
13609;SDS011;6876;50.788;4.940;2023-05-23T04:01:07;21.30;;;17.30;;
13609;SDS011;6876;50.788;4.940;2023-05-23T04:03:55;20.87;;;16.63;;
13609;SDS011;6876;50.788;4.940;2023-05-23T04:06:42;20.17;;;16.57;;
13609;SDS011;6876;50.788;4.940;2023-05-23T04:09:29;22.23;;;15.57;;
13609;SDS011;6876;50.788;4.940;2023-05-23T04:12:17;22.80;;;14.83;;
13609;SDS011;6876;50.788;4.940;2023-05-23T04:15:06;22.67;;;16.03;;
13609;SDS011;6876;50.788;4.940;2023-05-23T04:17:56;22.80;;;15.37;;
13609;SDS011;6876;50.788;4.940;2023-05-23T04:20:45;20.60;;;15.40;;
13609;SDS011;6876;50.788;4.940;2023-05-23T04:23:32;19.13;;;15.60;;
13609;SDS011;6876;50.788;4.940;2023-05-23T04:26:19;25.93;;;16.93;;
13609;SDS011;6876;50.788;4.940;2023-05-23T04:29:07;25.43;;;15.97;;
13609;SDS011;6876;50.788;4.940;2023-05-23T04:31:56;25.97;;;14.67;;
13609;SDS011;6876;50.788;4.940;2023-05-23T04:34:45;16.17;;;13.50;;
13609;SDS011;6876;50.788;4.940;2023-05-23T04:37:32;22.73;;;13.20;;
13609;SDS011;6876;50.788;4.940;2023-05-23T04:40:20;17.57;;;11.37;;
13609;SDS011;6876;50.788;4.940;2023-05-23T04:43:07;16.53;;;11.73;;
13609;SDS011;6876;50.788;4.940;2023-05-23T04:45:58;19.03;;;13.20;;
13609;SDS011;6876;50.788;4.940;2023-05-23T04:48:46;19.63;;;13.63;;
13609;SDS011;6876;50.788;4.940;2023-05-23T04:51:36;17.67;;;12.93;;
13609;SDS011;6876;50.788;4.940;2023-05-23T04:54:23;17.10;;;12.90;;
13609;SDS011;6876;50.788;4.940;2023-05-23T04:57:11;20.00;;;13.87;;
13609;SDS011;6876;50.788;4.940;2023-05-23T04:59:58;19.93;;;12.97;;
13609;SDS011;6876;50.788;4.940;2023-05-23T05:02:46;18.53;;;13.63;;
13609;SDS011;6876;50.788;4.940;2023-05-23T05:05:33;17.53;;;14.33;;
13609;SDS011;6876;50.788;4.940;2023-05-23T05:08:22;25.77;;;13.30;;
13609;SDS011;6876;50.788;4.940;2023-05-23T05:11:09;18.83;;;13.07;;
13609;SDS011;6876;50.788;4.940;2023-05-23T05:13:56;15.53;;;12.80;;
13609;SDS011;6876;50.788;4.940;2023-05-23T05:16:44;21.13;;;13.23;;
13609;SDS011;6876;50.788;4.940;2023-05-23T05:19:33;16.87;;;13.27;;
13609;SDS011;6876;50.788;4.940;2023-05-23T05:22:20;18.50;;;13.13;;
13609;SDS011;6876;50.788;4.940;2023-05-23T05:25:09;18.43;;;12.97;;
13609;SDS011;6876;50.788;4.940;2023-05-23T05:27:57;20.60;;;13.30;;
13609;SDS011;6876;50.788;4.940;2023-05-23T05:30:47;19.97;;;13.17;;
13609;SDS011;6876;50.788;4.940;2023-05-23T05:33:38;18.87;;;13.27;;
13609;SDS011;6876;50.788;4.940;2023-05-23T05:36:26;16.53;;;13.03;;
13609;SDS011;6876;50.788;4.940;2023-05-23T05:39:14;20.60;;;13.03;;
13609;SDS011;6876;50.788;4.940;2023-05-23T05:42:03;21.50;;;13.63;;
13609;SDS011;6876;50.788;4.940;2023-05-23T05:44:51;18.97;;;12.87;;
13609;SDS011;6876;50.788;4.940;2023-05-23T05:47:38;20.83;;;12.03;;
13609;SDS011;6876;50.788;4.940;2023-05-23T05:50:26;19.13;;;12.10;;
13609;SDS011;6876;50.788;4.940;2023-05-23T05:53:13;21.13;;;12.90;;
13609;SDS011;6876;50.788;4.940;2023-05-23T05:56:01;17.93;;;12.63;;
13609;SDS011;6876;50.788;4.940;2023-05-23T05:58:50;21.30;;;11.83;;
13609;SDS011;6876;50.788;4.940;2023-05-23T06:01:37;23.60;;;13.40;;
13609;SDS011;6876;50.788;4.940;2023-05-23T06:04:25;18.50;;;12.40;;
13609;SDS011;6876;50.788;4.940;2023-05-23T06:07:12;17.20;;;11.93;;
13609;SDS011;6876;50.788;4.940;2023-05-23T06:09:59;18.13;;;13.03;;
13609;SDS011;6876;50.788;4.940;2023-05-23T06:12:47;19.80;;;12.07;;
13609;SDS011;6876;50.788;4.940;2023-05-23T06:15:36;20.83;;;13.03;;
13609;SDS011;6876;50.788;4.940;2023-05-23T06:18:23;21.73;;;12.63;;
13609;SDS011;6876;50.788;4.940;2023-05-23T06:21:12;19.30;;;11.73;;
13609;SDS011;6876;50.788;4.940;2023-05-23T06:24:00;18.43;;;12.47;;
13609;SDS011;6876;50.788;4.940;2023-05-23T06:26:47;17.23;;;11.97;;
13609;SDS011;6876;50.788;4.940;2023-05-23T06:29:34;22.50;;;12.20;;
13609;SDS011;6876;50.788;4.940;2023-05-23T06:32:23;20.90;;;12.80;;
13609;SDS011;6876;50.788;4.940;2023-05-23T06:35:10;17.90;;;12.03;;
13609;SDS011;6876;50.788;4.940;2023-05-23T06:37:58;20.30;;;12.23;;
13609;SDS011;6876;50.788;4.940;2023-05-23T06:40:45;18.80;;;12.47;;
13609;SDS011;6876;50.788;4.940;2023-05-23T06:43:32;17.73;;;12.40;;
13609;SDS011;6876;50.788;4.940;2023-05-23T06:46:20;18.30;;;11.87;;
13609;SDS011;6876;50.788;4.940;2023-05-23T06:49:08;20.83;;;12.47;;
13609;SDS011;6876;50.788;4.940;2023-05-23T06:51:55;20.07;;;12.93;;
13609;SDS011;6876;50.788;4.940;2023-05-23T06:54:43;19.77;;;13.83;;
13609;SDS011;6876;50.788;4.940;2023-05-23T06:57:30;24.37;;;14.77;;
13609;SDS011;6876;50.788;4.940;2023-05-23T07:00:17;29.20;;;15.00;;
13609;SDS011;6876;50.788;4.940;2023-05-23T07:03:05;25.27;;;14.93;;
13609;SDS011;6876;50.788;4.940;2023-05-23T07:05:54;26.53;;;15.23;;
13609;SDS011;6876;50.788;4.940;2023-05-23T07:08:41;34.00;;;15.60;;
13609;SDS011;6876;50.788;4.940;2023-05-23T07:11:29;31.27;;;14.53;;
13609;SDS011;6876;50.788;4.940;2023-05-23T07:14:17;20.93;;;13.07;;
13609;SDS011;6876;50.788;4.940;2023-05-23T07:17:04;20.40;;;10.93;;
13609;SDS011;6876;50.788;4.940;2023-05-23T07:19:51;18.90;;;10.00;;
13609;SDS011;6876;50.788;4.940;2023-05-23T07:22:40;19.40;;;9.57;;
13609;SDS011;6876;50.788;4.940;2023-05-23T07:25:27;20.77;;;9.23;;
13609;SDS011;6876;50.788;4.940;2023-05-23T07:28:15;18.63;;;8.50;;
13609;SDS011;6876;50.788;4.940;2023-05-23T07:31:02;15.07;;;9.23;;
13609;SDS011;6876;50.788;4.940;2023-05-23T07:33:50;17.60;;;8.37;;
13609;SDS011;6876;50.788;4.940;2023-05-23T07:36:37;19.17;;;9.03;;
13609;SDS011;6876;50.788;4.940;2023-05-23T07:39:26;16.80;;;7.93;;
13609;SDS011;6876;50.788;4.940;2023-05-23T07:42:14;17.57;;;8.03;;
13609;SDS011;6876;50.788;4.940;2023-05-23T07:45:01;17.23;;;8.03;;
13609;SDS011;6876;50.788;4.940;2023-05-23T07:47:48;14.10;;;6.57;;
13609;SDS011;6876;50.788;4.940;2023-05-23T07:50:36;14.07;;;6.40;;
13609;SDS011;6876;50.788;4.940;2023-05-23T07:53:24;12.93;;;6.57;;
13609;SDS011;6876;50.788;4.940;2023-05-23T07:56:12;19.20;;;6.83;;
13609;SDS011;6876;50.788;4.940;2023-05-23T07:59:00;16.40;;;6.50;;
13609;SDS011;6876;50.788;4.940;2023-05-23T08:01:47;12.20;;;6.20;;
13609;SDS011;6876;50.788;4.940;2023-05-23T08:04:35;16.87;;;6.50;;
13609;SDS011;6876;50.788;4.940;2023-05-23T08:07:24;12.30;;;6.00;;
13609;SDS011;6876;50.788;4.940;2023-05-23T08:10:11;12.63;;;5.73;;
13609;SDS011;6876;50.788;4.940;2023-05-23T08:13:00;13.50;;;5.87;;
13609;SDS011;6876;50.788;4.940;2023-05-23T08:15:51;14.50;;;5.17;;
13609;SDS011;6876;50.788;4.940;2023-05-23T08:18:38;14.43;;;5.80;;
13609;SDS011;6876;50.788;4.940;2023-05-23T08:21:25;15.30;;;5.97;;
13609;SDS011;6876;50.788;4.940;2023-05-23T08:24:13;16.50;;;6.37;;
13609;SDS011;6876;50.788;4.940;2023-05-23T08:27:00;11.23;;;5.53;;
13609;SDS011;6876;50.788;4.940;2023-05-23T08:29:49;14.97;;;6.53;;
13609;SDS011;6876;50.788;4.940;2023-05-23T08:32:37;12.93;;;6.33;;
13609;SDS011;6876;50.788;4.940;2023-05-23T08:35:24;11.83;;;6.50;;
13609;SDS011;6876;50.788;4.940;2023-05-23T08:38:13;15.70;;;6.67;;
13609;SDS011;6876;50.788;4.940;2023-05-23T08:41:02;12.17;;;6.03;;
13609;SDS011;6876;50.788;4.940;2023-05-23T08:43:58;13.83;;;6.60;;
13609;SDS011;6876;50.788;4.940;2023-05-23T08:46:47;10.60;;;6.50;;
13609;SDS011;6876;50.788;4.940;2023-05-23T08:49:37;10.93;;;7.30;;
13609;SDS011;6876;50.788;4.940;2023-05-23T08:52:25;14.10;;;7.60;;
13609;SDS011;6876;50.788;4.940;2023-05-23T08:55:15;14.17;;;7.00;;
13609;SDS011;6876;50.788;4.940;2023-05-23T08:58:03;12.73;;;6.87;;
13609;SDS011;6876;50.788;4.940;2023-05-23T09:00:51;13.97;;;7.93;;
13609;SDS011;6876;50.788;4.940;2023-05-23T09:03:41;16.73;;;8.07;;
13609;SDS011;6876;50.788;4.940;2023-05-23T09:06:28;17.98;;;7.57;;
13609;SDS011;6876;50.788;4.940;2023-05-23T09:09:16;13.25;;;6.65;;
13609;SDS011;6876;50.788;4.940;2023-05-23T09:12:04;16.77;;;7.72;;
13609;SDS011;6876;50.788;4.940;2023-05-23T09:14:51;13.27;;;7.47;;
13609;SDS011;6876;50.788;4.940;2023-05-23T09:17:39;12.57;;;7.20;;
13609;SDS011;6876;50.788;4.940;2023-05-23T09:20:27;15.43;;;7.93;;
13609;SDS011;6876;50.788;4.940;2023-05-23T09:23:15;15.38;;;7.97;;
13609;SDS011;6876;50.788;4.940;2023-05-23T09:26:03;14.20;;;7.57;;
13609;SDS011;6876;50.788;4.940;2023-05-23T09:28:50;16.58;;;7.60;;
13609;SDS011;6876;50.788;4.940;2023-05-23T09:31:42;15.18;;;7.75;;
13609;SDS011;6876;50.788;4.940;2023-05-23T09:34:29;14.45;;;6.97;;
13609;SDS011;6876;50.788;4.940;2023-05-23T09:37:18;14.82;;;7.80;;
13609;SDS011;6876;50.788;4.940;2023-05-23T09:40:09;14.30;;;7.75;;
13609;SDS011;6876;50.788;4.940;2023-05-23T09:43:00;16.27;;;8.00;;
13609;SDS011;6876;50.788;4.940;2023-05-23T09:45:49;14.88;;;7.80;;
13609;SDS011;6876;50.788;4.940;2023-05-23T09:48:38;16.33;;;7.72;;
13609;SDS011;6876;50.788;4.940;2023-05-23T09:51:25;12.23;;;7.45;;
13609;SDS011;6876;50.788;4.940;2023-05-23T09:54:14;21.55;;;8.63;;
13609;SDS011;6876;50.788;4.940;2023-05-23T09:57:01;16.90;;;8.52;;
13609;SDS011;6876;50.788;4.940;2023-05-23T09:59:51;13.07;;;8.00;;
13609;SDS011;6876;50.788;4.940;2023-05-23T10:02:53;12.95;;;7.80;;
13609;SDS011;6876;50.788;4.940;2023-05-23T10:05:43;16.67;;;8.02;;
13609;SDS011;6876;50.788;4.940;2023-05-23T10:08:33;14.85;;;7.63;;
13609;SDS011;6876;50.788;4.940;2023-05-23T10:14:59;11.80;;;7.40;;
13609;SDS011;6876;50.788;4.940;2023-05-23T10:17:52;13.17;;;7.10;;
13609;SDS011;6876;50.788;4.940;2023-05-23T10:20:48;12.53;;;6.57;;
13609;SDS011;6876;50.788;4.940;2023-05-23T10:23:36;15.73;;;6.70;;
13609;SDS011;6876;50.788;4.940;2023-05-23T10:26:24;12.35;;;6.18;;
13609;SDS011;6876;50.788;4.940;2023-05-23T10:29:12;11.10;;;6.22;;
13609;SDS011;6876;50.788;4.940;2023-05-23T10:32:01;10.98;;;6.15;;
13609;SDS011;6876;50.788;4.940;2023-05-23T10:34:53;13.02;;;6.75;;
13609;SDS011;6876;50.788;4.940;2023-05-23T10:37:46;13.85;;;6.63;;
13609;SDS011;6876;50.788;4.940;2023-05-23T10:40:42;13.05;;;6.10;;
13609;SDS011;6876;50.788;4.940;2023-05-23T10:43:39;11.13;;;6.27;;
13609;SDS011;6876;50.788;4.940;2023-05-23T10:46:49;21.80;;;6.38;;
13609;SDS011;6876;50.788;4.940;2023-05-23T10:49:41;13.32;;;6.07;;
13609;SDS011;6876;50.788;4.940;2023-05-23T10:52:30;16.55;;;6.90;;
13609;SDS011;6876;50.788;4.940;2023-05-23T10:55:25;18.17;;;6.60;;
13609;SDS011;6876;50.788;4.940;2023-05-23T10:58:17;13.15;;;5.90;;
13609;SDS011;6876;50.788;4.940;2023-05-23T11:01:07;14.40;;;7.05;;
13609;SDS011;6876;50.788;4.940;2023-05-23T11:03:58;13.77;;;6.63;;
13609;SDS011;6876;50.788;4.940;2023-05-23T11:06:53;9.70;;;6.03;;
13609;SDS011;6876;50.788;4.940;2023-05-23T11:12:49;14.65;;;6.47;;
13609;SDS011;6876;50.788;4.940;2023-05-23T11:15:51;18.80;;;7.25;;
13609;SDS011;6876;50.788;4.940;2023-05-23T11:18:39;10.02;;;6.88;;
13609;SDS011;6876;50.788;4.940;2023-05-23T11:21:26;9.82;;;6.13;;
13609;SDS011;6876;50.788;4.940;2023-05-23T11:24:17;21.52;;;7.25;;
13609;SDS011;6876;50.788;4.940;2023-05-23T11:27:10;21.67;;;7.10;;
13609;SDS011;6876;50.788;4.940;2023-05-23T11:29:58;10.13;;;5.55;;
13609;SDS011;6876;50.788;4.940;2023-05-23T11:32:49;9.80;;;5.32;;
13609;SDS011;6876;50.788;4.940;2023-05-23T11:35:37;7.47;;;5.30;;
13609;SDS011;6876;50.788;4.940;2023-05-23T11:38:25;8.65;;;5.20;;
13609;SDS011;6876;50.788;4.940;2023-05-23T11:41:14;9.85;;;5.45;;
13609;SDS011;6876;50.788;4.940;2023-05-23T11:44:09;11.32;;;6.65;;
13609;SDS011;6876;50.788;4.940;2023-05-23T11:47:00;6.57;;;5.10;;
13609;SDS011;6876;50.788;4.940;2023-05-23T11:49:48;13.75;;;6.20;;
13609;SDS011;6876;50.788;4.940;2023-05-23T11:52:36;12.65;;;6.05;;
13609;SDS011;6876;50.788;4.940;2023-05-23T11:55:23;9.30;;;5.43;;
13609;SDS011;6876;50.788;4.940;2023-05-23T11:58:12;9.13;;;6.03;;
13609;SDS011;6876;50.788;4.940;2023-05-23T12:00:59;7.43;;;4.80;;
13609;SDS011;6876;50.788;4.940;2023-05-23T12:03:48;11.63;;;5.13;;
13609;SDS011;6876;50.788;4.940;2023-05-23T12:06:37;8.65;;;5.28;;
13609;SDS011;6876;50.788;4.940;2023-05-23T12:09:25;8.48;;;4.35;;
13609;SDS011;6876;50.788;4.940;2023-05-23T12:12:13;5.78;;;4.32;;
13609;SDS011;6876;50.788;4.940;2023-05-23T12:15:02;7.47;;;4.95;;
13609;SDS011;6876;50.788;4.940;2023-05-23T12:17:50;11.15;;;4.97;;
13609;SDS011;6876;50.788;4.940;2023-05-23T12:20:39;10.90;;;5.05;;
13609;SDS011;6876;50.788;4.940;2023-05-23T12:23:27;7.75;;;4.63;;
13609;SDS011;6876;50.788;4.940;2023-05-23T12:26:15;10.38;;;4.63;;
13609;SDS011;6876;50.788;4.940;2023-05-23T12:29:02;13.93;;;4.50;;
13609;SDS011;6876;50.788;4.940;2023-05-23T12:31:51;9.48;;;4.88;;
13609;SDS011;6876;50.788;4.940;2023-05-23T12:34:39;11.02;;;4.30;;
13609;SDS011;6876;50.788;4.940;2023-05-23T12:37:28;9.18;;;4.13;;
13609;SDS011;6876;50.788;4.940;2023-05-23T12:40:16;12.40;;;4.72;;
13609;SDS011;6876;50.788;4.940;2023-05-23T12:43:07;9.27;;;4.68;;
13609;SDS011;6876;50.788;4.940;2023-05-23T12:45:55;9.45;;;4.35;;
13609;SDS011;6876;50.788;4.940;2023-05-23T12:48:44;8.65;;;4.07;;
13609;SDS011;6876;50.788;4.940;2023-05-23T12:51:31;11.50;;;4.00;;
13609;SDS011;6876;50.788;4.940;2023-05-23T12:54:19;14.27;;;3.97;;
13609;SDS011;6876;50.788;4.940;2023-05-23T12:57:06;8.65;;;3.85;;
13609;SDS011;6876;50.788;4.940;2023-05-23T12:59:53;11.02;;;3.72;;
13609;SDS011;6876;50.788;4.940;2023-05-23T13:02:41;16.85;;;4.20;;
13609;SDS011;6876;50.788;4.940;2023-05-23T13:05:29;11.85;;;4.38;;
13609;SDS011;6876;50.788;4.940;2023-05-23T13:08:17;12.25;;;4.82;;
13609;SDS011;6876;50.788;4.940;2023-05-23T13:11:04;10.95;;;4.03;;
13609;SDS011;6876;50.788;4.940;2023-05-23T13:13:51;15.55;;;3.90;;
13609;SDS011;6876;50.788;4.940;2023-05-23T13:16:39;11.10;;;3.65;;
13609;SDS011;6876;50.788;4.940;2023-05-23T13:19:26;10.35;;;3.70;;
13609;SDS011;6876;50.788;4.940;2023-05-23T13:22:15;14.57;;;4.18;;
13609;SDS011;6876;50.788;4.940;2023-05-23T13:25:02;12.32;;;4.43;;
13609;SDS011;6876;50.788;4.940;2023-05-23T13:27:50;10.77;;;4.10;;
13609;SDS011;6876;50.788;4.940;2023-05-23T13:30:38;8.52;;;4.05;;
13609;SDS011;6876;50.788;4.940;2023-05-23T13:33:27;12.70;;;4.50;;
13609;SDS011;6876;50.788;4.940;2023-05-23T13:36:14;10.15;;;3.72;;
13609;SDS011;6876;50.788;4.940;2023-05-23T13:39:03;14.40;;;3.95;;
13609;SDS011;6876;50.788;4.940;2023-05-23T13:41:51;12.00;;;3.95;;
13609;SDS011;6876;50.788;4.940;2023-05-23T13:44:39;10.82;;;3.75;;
13609;SDS011;6876;50.788;4.940;2023-05-23T13:47:26;13.13;;;3.80;;
13609;SDS011;6876;50.788;4.940;2023-05-23T13:50:13;13.25;;;4.63;;
13609;SDS011;6876;50.788;4.940;2023-05-23T13:53:01;9.75;;;3.40;;
13609;SDS011;6876;50.788;4.940;2023-05-23T13:55:49;8.23;;;3.53;;
13609;SDS011;6876;50.788;4.940;2023-05-23T13:58:37;14.95;;;4.57;;
13609;SDS011;6876;50.788;4.940;2023-05-23T14:01:24;9.15;;;3.90;;
13609;SDS011;6876;50.788;4.940;2023-05-23T14:04:11;17.85;;;4.35;;
13609;SDS011;6876;50.788;4.940;2023-05-23T14:06:59;11.40;;;3.83;;
13609;SDS011;6876;50.788;4.940;2023-05-23T14:09:46;14.85;;;4.13;;
13609;SDS011;6876;50.788;4.940;2023-05-23T14:12:35;15.00;;;4.65;;
13609;SDS011;6876;50.788;4.940;2023-05-23T14:15:23;11.55;;;3.70;;
13609;SDS011;6876;50.788;4.940;2023-05-23T14:18:11;10.15;;;3.80;;
13609;SDS011;6876;50.788;4.940;2023-05-23T14:20:59;13.73;;;3.88;;
13609;SDS011;6876;50.788;4.940;2023-05-23T14:23:46;9.65;;;3.92;;
13609;SDS011;6876;50.788;4.940;2023-05-23T14:26:39;18.35;;;4.00;;
13609;SDS011;6876;50.788;4.940;2023-05-23T14:29:28;8.15;;;3.10;;
13609;SDS011;6876;50.788;4.940;2023-05-23T14:32:18;25.13;;;4.18;;
13609;SDS011;6876;50.788;4.940;2023-05-23T14:35:05;9.57;;;3.20;;
13609;SDS011;6876;50.788;4.940;2023-05-23T14:37:55;9.75;;;3.17;;
13609;SDS011;6876;50.788;4.940;2023-05-23T14:40:42;12.98;;;3.88;;
13609;SDS011;6876;50.788;4.940;2023-05-23T14:43:30;11.30;;;4.25;;
13609;SDS011;6876;50.788;4.940;2023-05-23T14:46:18;9.35;;;3.85;;
13609;SDS011;6876;50.788;4.940;2023-05-23T14:49:10;11.30;;;4.47;;
13609;SDS011;6876;50.788;4.940;2023-05-23T14:51:58;15.30;;;4.28;;
13609;SDS011;6876;50.788;4.940;2023-05-23T14:54:45;18.92;;;4.80;;
13609;SDS011;6876;50.788;4.940;2023-05-23T14:57:32;14.13;;;4.28;;
13609;SDS011;6876;50.788;4.940;2023-05-23T15:00:20;18.70;;;4.18;;
13609;SDS011;6876;50.788;4.940;2023-05-23T15:03:09;18.48;;;4.30;;
13609;SDS011;6876;50.788;4.940;2023-05-23T15:05:56;20.98;;;4.70;;
13609;SDS011;6876;50.788;4.940;2023-05-23T15:08:43;9.10;;;3.80;;
13609;SDS011;6876;50.788;4.940;2023-05-23T15:11:33;17.02;;;3.83;;
13609;SDS011;6876;50.788;4.940;2023-05-23T15:14:22;13.10;;;4.00;;
13609;SDS011;6876;50.788;4.940;2023-05-23T15:17:13;15.80;;;4.05;;
13609;SDS011;6876;50.788;4.940;2023-05-23T15:20:06;14.20;;;3.75;;
13609;SDS011;6876;50.788;4.940;2023-05-23T15:22:54;15.35;;;4.05;;
13609;SDS011;6876;50.788;4.940;2023-05-23T15:25:42;8.45;;;3.45;;
13609;SDS011;6876;50.788;4.940;2023-05-23T15:28:29;9.38;;;3.75;;
13609;SDS011;6876;50.788;4.940;2023-05-23T15:31:16;12.73;;;3.72;;
13609;SDS011;6876;50.788;4.940;2023-05-23T15:34:03;14.18;;;4.18;;
13609;SDS011;6876;50.788;4.940;2023-05-23T15:36:53;11.73;;;3.88;;
13609;SDS011;6876;50.788;4.940;2023-05-23T15:39:40;12.60;;;3.78;;
13609;SDS011;6876;50.788;4.940;2023-05-23T15:42:28;13.20;;;4.32;;
13609;SDS011;6876;50.788;4.940;2023-05-23T15:45:16;12.15;;;4.03;;
13609;SDS011;6876;50.788;4.940;2023-05-23T15:48:03;12.25;;;4.20;;
13609;SDS011;6876;50.788;4.940;2023-05-23T15:50:51;14.50;;;4.00;;
13609;SDS011;6876;50.788;4.940;2023-05-23T15:53:39;15.30;;;3.83;;
13609;SDS011;6876;50.788;4.940;2023-05-23T15:56:29;11.15;;;3.72;;
13609;SDS011;6876;50.788;4.940;2023-05-23T15:59:16;9.88;;;3.70;;
13609;SDS011;6876;50.788;4.940;2023-05-23T16:02:04;12.07;;;4.22;;
13609;SDS011;6876;50.788;4.940;2023-05-23T16:04:51;15.73;;;3.80;;
13609;SDS011;6876;50.788;4.940;2023-05-23T16:07:39;11.35;;;3.58;;
13609;SDS011;6876;50.788;4.940;2023-05-23T16:10:27;13.02;;;4.68;;
13609;SDS011;6876;50.788;4.940;2023-05-23T16:13:15;15.73;;;4.18;;
13609;SDS011;6876;50.788;4.940;2023-05-23T16:16:02;13.50;;;3.97;;
13609;SDS011;6876;50.788;4.940;2023-05-23T16:18:50;11.70;;;3.90;;
13609;SDS011;6876;50.788;4.940;2023-05-23T16:21:37;9.57;;;3.63;;
13609;SDS011;6876;50.788;4.940;2023-05-23T16:24:25;10.15;;;3.42;;
13609;SDS011;6876;50.788;4.940;2023-05-23T16:27:14;14.98;;;4.25;;
13609;SDS011;6876;50.788;4.940;2023-05-23T16:30:02;11.52;;;3.83;;
13609;SDS011;6876;50.788;4.940;2023-05-23T16:32:50;14.65;;;3.83;;
13609;SDS011;6876;50.788;4.940;2023-05-23T16:35:38;11.65;;;3.65;;
13609;SDS011;6876;50.788;4.940;2023-05-23T16:38:25;16.75;;;4.07;;
13609;SDS011;6876;50.788;4.940;2023-05-23T16:41:13;13.40;;;4.10;;
13609;SDS011;6876;50.788;4.940;2023-05-23T16:44:01;14.27;;;4.00;;
13609;SDS011;6876;50.788;4.940;2023-05-23T16:46:49;11.95;;;3.58;;
13609;SDS011;6876;50.788;4.940;2023-05-23T16:49:37;9.65;;;3.83;;
13609;SDS011;6876;50.788;4.940;2023-05-23T16:52:24;14.02;;;3.58;;
13609;SDS011;6876;50.788;4.940;2023-05-23T16:55:11;13.93;;;4.28;;
13609;SDS011;6876;50.788;4.940;2023-05-23T16:57:58;12.88;;;4.40;;